Time;durP1;ratioP1;P1;durP2;ratioP2;P2;SDS_P1;SDS_P2;PMS_P1;PMS_P2;Temp;Humidity;BMP_temperature;BMP_pressure;BME280_temperature;BME280_humidity;BME280_pressure;Samples;Min_cycle;Max_cycle;Signal;HPM_P1;HPM_P2
2021/12/11 00:02:20;;;;;;;2.93;1.67;;;3.00;99.90;;;3.09;72.29;96232.94;5106745;28;20358;-40
2021/12/11 00:04:55;;;;;;;5.27;1.67;;;2.90;99.90;;;2.88;73.29;96248.16;5106635;28;20035;-40
2021/12/11 00:07:28;;;;;;;2.77;1.53;;;2.70;99.90;;;2.86;72.67;96240.41;5108046;28;20062;-40
2021/12/11 00:10:31;;;;;;;3.23;2.17;;;2.70;99.90;;;2.83;73.12;96242.50;5107276;28;20383;-40
2021/12/11 00:13:06;;;;;;;2.67;1.50;;;2.70;99.90;;;2.81;72.76;96252.34;5107022;28;20223;-40
2021/12/11 00:15:40;;;;;;;2.83;1.57;;;2.70;99.90;;;2.77;72.71;96257.06;5108140;28;20354;-40
2021/12/11 00:18:12;;;;;;;1.83;1.45;;;2.60;99.90;;;2.76;72.56;96261.50;5108558;28;20352;-40
2021/12/11 00:21:14;;;;;;;3.00;1.77;;;2.60;99.90;;;2.75;72.39;96257.22;5107353;28;20052;-40
2021/12/11 00:24:29;;;;;;;2.60;1.57;;;2.60;99.90;;;2.73;72.66;96272.31;5107735;28;20039;-40
2021/12/11 00:27:22;;;;;;;2.28;1.38;;;2.50;99.90;;;2.57;72.61;96269.47;5046006;28;20250;-40
2021/12/11 00:29:51;;;;;;;2.90;1.80;;;2.40;99.90;;;2.51;72.85;96277.94;5090572;28;20061;-40
2021/12/11 00:32:31;;;;;;;2.50;1.70;;;2.30;99.90;;;2.35;73.19;96281.19;5107474;28;20062;-40
2021/12/11 00:35:14;;;;;;;2.57;2.00;;;2.10;99.90;;;2.38;72.79;96295.81;5107494;28;20059;-40
2021/12/11 00:37:42;;;;;;;2.30;1.58;;;2.10;99.90;;;2.32;73.42;96291.97;5107417;28;20056;-40
2021/12/11 00:40:31;;;;;;;2.60;1.50;;;2.10;99.90;;;2.38;73.00;96287.94;5108183;28;20418;-40
2021/12/11 00:43:04;;;;;;;1.93;1.40;;;2.20;99.90;;;2.34;73.16;96303.97;5106036;28;20055;-40
2021/12/11 00:45:38;;;;;;;2.30;1.50;;;2.20;99.90;;;2.23;73.61;96303.31;5107945;28;20044;-40
2021/12/11 00:48:14;;;;;;;1.60;1.20;;;2.10;99.90;;;2.36;73.21;96309.94;5089795;28;20238;-40
2021/12/11 00:51:23;;;;;;;1.70;1.17;;;2.20;99.90;;;2.39;73.08;96321.13;5106719;28;20226;-39
2021/12/11 00:53:57;;;;;;;1.73;1.27;;;2.20;99.90;;;2.35;73.13;96324.03;5093404;28;20048;-40
2021/12/11 00:56:35;;;;;;;1.83;1.13;;;2.20;99.90;;;2.46;72.81;96325.66;5105933;28;20341;-40
2021/12/11 00:59:09;;;;;;;1.80;1.10;;;2.30;99.90;;;2.51;72.99;96330.47;5106293;28;20061;-40
2021/12/11 01:01:44;;;;;;;;;;;2.30;99.90;;;2.44;73.11;96327.56;5107524;28;20437;-40
2021/12/11 01:04:22;;;;;;;2.50;1.37;;;2.30;99.90;;;2.47;72.87;96340.44;5105958;28;19919;-40
2021/12/11 01:07:04;;;;;;;1.30;1.10;;;2.30;99.90;;;2.44;72.88;96347.78;5106728;28;20441;-40
2021/12/11 01:09:47;;;;;;;1.87;1.10;;;2.30;99.90;;;2.40;72.62;96356.91;5106961;28;20040;-40
2021/12/11 01:12:27;;;;;;;1.20;1.00;;;2.20;99.90;;;2.43;72.73;96356.63;5106375;28;20057;-40
2021/12/11 01:15:13;;;;;;;1.93;1.13;;;2.20;99.90;;;2.44;72.96;96364.34;5105872;28;20062;-40
2021/12/11 01:18:00;;;;;;;0.80;0.80;;;2.20;99.90;;;2.44;72.67;96371.41;5106910;28;20055;-40
2021/12/11 01:20:37;;;;;;;1.10;1.00;;;2.20;99.90;;;2.43;72.97;96380.28;5106883;28;20062;-40
2021/12/11 01:23:27;;;;;;;1.53;1.03;;;2.20;99.90;;;2.48;72.82;96373.63;5106467;28;20055;-40
2021/12/11 01:25:55;;;;;;;1.90;1.20;;;2.20;99.90;;;2.35;72.82;96392.31;5107002;28;20051;-40
2021/12/11 01:28:23;;;;;;;1.53;1.00;;;2.10;99.90;;;2.38;72.78;96399.06;5106032;28;20048;-40
2021/12/11 01:30:53;;;;;;;1.07;0.90;;;2.10;99.90;;;2.29;73.12;96406.00;5105701;28;20349;-40
2021/12/11 01:33:21;;;;;;;1.07;0.90;;;2.00;99.90;;;2.40;72.39;96407.63;5106604;28;20047;-40
2021/12/11 01:35:50;;;;;;;1.40;1.00;;;2.10;99.90;;;2.47;72.54;96413.19;5105331;28;20068;-40
2021/12/11 01:38:26;;;;;;;0.73;0.60;;;2.30;99.90;;;2.43;72.84;96417.88;5105575;28;20052;-40
2021/12/11 01:41:00;;;;;;;1.13;0.80;;;2.30;99.90;;;2.41;73.11;96426.88;5106450;28;20055;-40
2021/12/11 01:43:32;;;;;;;1.17;0.70;;;2.30;99.90;;;2.48;73.08;96439.31;5107676;28;20357;-40
2021/12/11 01:46:02;;;;;;;2.00;0.80;;;2.30;99.90;;;2.45;72.60;96434.31;5104949;28;20043;-40
2021/12/11 01:48:39;;;;;;;0.83;0.70;;;2.30;99.90;;;2.45;72.88;96446.63;5106254;28;20046;-40
2021/12/11 01:51:44;;;;;;;0.60;0.60;;;2.20;99.90;;;2.31;73.11;96451.34;5108061;28;20211;-40
2021/12/11 01:54:19;;;;;;;;;;;2.10;99.90;;;2.33;73.07;96462.53;5105364;28;20058;-40
2021/12/11 01:56:54;;;;;;;0.70;0.70;;;2.10;99.90;;;2.41;72.80;96463.66;5105453;28;19915;-40
2021/12/11 01:59:39;;;;;;;0.77;0.60;;;2.10;99.90;;;2.48;72.85;96464.72;5106525;28;20415;-40
2021/12/11 02:02:27;;;;;;;0.67;0.67;;;2.30;99.90;;;2.49;72.81;96469.84;5105645;28;20232;-40
2021/12/11 02:04:56;;;;;;;1.53;1.00;;;2.30;99.90;;;2.46;72.78;96474.56;5110315;28;20363;-40
2021/12/11 02:07:31;;;;;;;1.10;1.00;;;2.30;99.90;;;2.43;73.01;96478.31;5110515;28;20049;-40
2021/12/11 02:10:01;;;;;;;1.40;1.10;;;2.20;99.90;;;2.49;72.70;96485.63;5110418;28;20082;-40
2021/12/11 02:12:39;;;;;;;1.80;1.37;;;2.30;99.90;;;2.44;72.80;96492.25;5111079;28;20320;-40
2021/12/11 02:15:26;;;;;;;1.60;1.20;;;2.20;99.90;;;2.43;73.04;96496.69;5110226;28;20182;-40
2021/12/11 02:18:00;;;;;;;3.30;1.63;;;2.30;99.90;;;2.37;72.94;96499.88;5108885;28;20061;-40
2021/12/11 02:20:38;;;;;;;1.77;1.27;;;2.20;99.90;;;2.23;73.38;96505.50;5109641;28;20069;-40
2021/12/11 02:23:07;;;;;;;3.37;2.13;;;2.10;99.90;;;2.21;73.46;96510.94;5109960;28;20055;-40
2021/12/11 02:25:46;;;;;;;2.10;1.70;;;2.00;99.90;;;2.30;73.35;96515.34;5107728;28;20050;-40
2021/12/11 02:28:16;;;;;;;4.10;2.33;;;2.10;99.90;;;2.28;73.68;96526.94;5110034;28;20162;-40
2021/12/11 02:31:01;;;;;;;4.53;2.40;;;2.10;99.90;;;2.29;73.53;96526.00;5111283;28;20047;-40
2021/12/11 02:33:38;;;;;;;3.73;2.63;;;2.10;99.90;;;2.33;73.33;96535.25;5110120;28;20051;-40
2021/12/11 02:36:11;;;;;;;6.03;3.07;;;2.10;99.90;;;2.38;73.23;96542.72;5109868;28;20051;-40
2021/12/11 02:38:59;;;;;;;5.37;2.90;;;2.20;99.90;;;2.33;73.68;96548.41;5109740;28;20043;-40
2021/12/11 02:41:52;;;;;;;3.33;2.23;;;2.20;99.90;;;2.30;73.76;96549.47;5110466;28;20051;-40
2021/12/11 02:44:37;;;;;;;3.23;2.23;;;2.10;99.90;;;2.33;73.95;96551.84;5106923;28;20052;-40
2021/12/11 02:47:42;;;;;;;2.70;1.77;;;2.20;99.90;;;2.38;73.57;96554.06;5110323;28;20040;-40
2021/12/11 02:50:33;;;;;;;3.90;3.10;;;2.20;99.90;;;2.48;73.42;96561.94;5108785;28;20048;-40
2021/12/11 02:53:09;;;;;;;2.97;2.20;;;2.30;99.90;;;2.39;73.68;96562.78;5107519;28;20057;-40
2021/12/11 02:55:54;;;;;;;2.77;2.20;;;2.30;99.90;;;2.46;73.15;96569.13;5108652;28;20059;-40
2021/12/11 02:58:30;;;;;;;4.37;2.50;;;2.30;99.90;;;2.54;73.49;96569.31;5108527;28;20062;-40
2021/12/11 03:01:24;;;;;;;2.23;1.80;;;2.40;99.90;;;2.56;73.05;96575.25;5107615;28;20635;-40
2021/12/11 03:04:18;;;;;;;2.50;1.95;;;2.30;99.90;;;2.48;73.54;96582.97;5106988;28;20365;-40
2021/12/11 03:06:49;;;;;;;3.10;2.20;;;2.30;99.90;;;2.47;73.29;96586.56;5109277;28;20547;-40
2021/12/11 03:09:23;;;;;;;2.63;2.13;;;2.20;99.90;;;2.32;73.89;96597.44;5110402;28;20364;-40
2021/12/11 03:11:54;;;;;;;3.88;2.65;;;2.10;99.90;;;2.40;73.61;96606.47;5107238;28;20062;-40
2021/12/11 03:14:24;;;;;;;3.50;2.77;;;2.20;99.90;;;2.39;73.50;96596.94;5107071;28;20598;-40
2021/12/11 03:16:54;;;;;;;6.07;3.30;;;2.20;99.90;;;2.46;73.58;96604.13;5090352;28;20066;-40
2021/12/11 03:19:26;;;;;;;4.27;3.37;;;2.30;99.90;;;2.49;73.51;96619.59;5109112;28;20619;-40
2021/12/11 03:21:55;;;;;;;4.33;3.40;;;2.30;99.90;;;2.56;73.49;96618.09;5091114;28;20053;-40
2021/12/11 03:24:27;;;;;;;4.47;3.23;;;2.40;99.90;;;2.52;73.68;96626.38;5108868;28;20044;-40
2021/12/11 03:26:56;;;;;;;4.10;3.37;;;2.30;99.90;;;2.55;73.52;96634.00;5108441;28;20048;-40
2021/12/11 03:29:25;;;;;;;4.57;2.97;;;2.40;99.90;;;2.50;73.73;96638.81;5108003;28;20043;-40
2021/12/11 03:31:53;;;;;;;3.90;2.63;;;2.30;99.90;;;2.54;73.60;96648.13;5107619;28;20082;-40
2021/12/11 03:34:27;;;;;;;4.27;3.20;;;2.40;99.90;;;2.60;73.50;96649.34;5107910;28;20051;-40
2021/12/11 03:36:57;;;;;;;4.18;3.45;;;2.40;99.90;;;2.65;73.78;96658.50;5090024;28;20261;-40
2021/12/11 03:39:32;;;;;;;5.63;3.13;;;2.50;99.90;;;2.59;73.52;96668.72;5108583;28;20055;-40
2021/12/11 03:42:10;;;;;;;4.30;3.47;;;2.40;99.90;;;2.59;73.69;96668.72;5108328;28;20065;-40
2021/12/11 03:44:39;;;;;;;5.80;3.37;;;2.40;99.90;;;2.48;73.84;96683.66;5106802;28;20054;-40
2021/12/11 03:47:35;;;;;;;5.00;4.07;;;2.30;99.90;;;2.50;73.83;96686.97;5108105;28;20055;-40
2021/12/11 03:50:11;;;;;;;4.77;3.53;;;2.30;99.90;;;2.50;73.52;96694.00;5108419;28;20056;-40
2021/12/11 03:52:44;;;;;;;5.27;3.17;;;2.30;99.90;;;2.49;73.76;96695.81;5107961;28;20097;-40
2021/12/11 03:55:17;;;;;;;3.97;3.22;;;2.30;99.90;;;2.50;73.89;96700.09;5106574;28;20043;-40
2021/12/11 03:57:45;;;;;;;3.57;3.20;;;2.30;99.90;;;2.48;73.74;96707.28;5107954;28;20082;-40
2021/12/11 04:00:19;;;;;;;5.57;3.33;;;2.30;99.90;;;2.47;74.10;96715.31;5107063;28;20070;-40
2021/12/11 04:02:48;;;;;;;3.90;3.20;;;2.30;99.90;;;2.43;74.21;96724.41;5108356;28;20074;-40
2021/12/11 04:05:16;;;;;;;4.40;3.60;;;2.20;99.90;;;2.32;74.20;96725.34;5108483;28;20250;-40
2021/12/11 04:07:50;;;;;;;5.30;4.20;;;2.10;99.90;;;2.44;73.75;96720.81;5107292;28;20348;-40
2021/12/11 04:10:20;;;;;;;5.90;4.60;;;2.20;99.90;;;2.51;73.93;96721.94;5107880;28;20097;-40
2021/12/11 04:12:49;;;;;;;6.97;4.70;;;2.30;99.90;;;2.55;73.63;96728.59;5088466;28;20056;-40
2021/12/11 04:15:17;;;;;;;6.93;4.37;;;2.30;99.90;;;2.54;73.71;96737.47;5107535;28;20051;-40
2021/12/11 04:17:44;;;;;;;6.73;4.60;;;2.30;99.90;;;2.50;73.94;96741.28;5089082;28;20051;-40
2021/12/11 04:20:20;;;;;;;5.70;4.50;;;2.30;99.90;;;2.46;74.09;96755.66;5106733;28;20047;-40
2021/12/11 04:22:48;;;;;;;6.37;4.60;;;2.30;99.90;;;2.46;74.31;96755.66;5106308;28;20051;-40
2021/12/11 04:25:20;;;;;;;6.30;4.50;;;2.30;99.90;;;2.42;74.16;96759.53;5106508;28;20047;-40
2021/12/11 04:27:49;;;;;;;6.13;4.70;;;2.20;99.90;;;2.44;74.24;96768.09;5107175;28;20046;-40
2021/12/11 04:30:20;;;;;;;6.33;4.67;;;2.30;99.90;;;2.45;74.09;96777.66;5088378;28;20052;-40
2021/12/11 04:32:52;;;;;;;6.03;4.23;;;2.30;99.90;;;2.46;74.30;96774.91;5107561;28;20234;-39
2021/12/11 04:35:21;;;;;;;7.77;4.77;;;2.30;99.90;;;2.42;74.22;96785.78;5106445;28;20065;-39
2021/12/11 04:37:49;;;;;;;5.40;4.30;;;2.30;99.90;;;2.49;74.24;96798.28;5107564;28;20051;-40
2021/12/11 04:40:24;;;;;;;6.97;5.13;;;2.30;99.90;;;2.47;74.16;96794.13;5107643;28;20051;-40
2021/12/11 04:45:32;;;;;;;4.47;3.43;;;2.30;99.90;;;2.43;74.39;96801.44;5106597;28;20049;-40
2021/12/11 04:48:14;;;;;;;5.50;4.67;;;2.30;99.90;;;2.35;74.43;96806.50;5105522;28;20241;-40
2021/12/11 04:53:42;;;;;;;4.97;4.00;;;2.10;99.90;;;2.35;74.30;96814.41;5107313;28;20039;-40
2021/12/11 04:56:45;;;;;;;5.27;4.10;;;2.20;99.90;;;2.34;74.61;96817.97;5106626;28;20245;-40
2021/12/11 05:10:15;;;;;;;5.13;3.13;;;2.10;99.90;;;2.26;75.16;96841.44;5107381;28;20108;-39
2021/12/11 05:12:50;;;;;;;5.10;4.13;;;2.10;99.90;;;2.32;74.68;96841.72;5106841;28;20066;-40
2021/12/11 05:15:29;;;;;;;4.87;4.13;;;2.10;99.90;;;2.38;74.37;96843.00;5104982;28;20050;-40
2021/12/11 05:17:58;;;;;;;4.83;3.53;;;2.20;99.90;;;2.29;74.46;96857.78;5108175;28;20352;-40
2021/12/11 05:20:32;;;;;;;6.00;4.80;;;2.10;99.90;;;2.26;74.83;96865.06;5106791;28;20039;-40
2021/12/11 05:23:00;;;;;;;7.78;4.47;;;2.10;99.90;;;2.30;74.75;96871.72;5106492;28;20074;-40
2021/12/11 05:25:29;;;;;;;7.07;5.03;;;2.10;99.90;;;2.41;74.54;96874.28;5106798;28;20040;-40
2021/12/11 05:27:58;;;;;;;5.77;4.67;;;2.20;99.90;;;2.50;74.42;96877.94;5105077;28;20353;-40
2021/12/11 05:30:32;;;;;;;6.27;5.23;;;2.30;99.90;;;2.45;74.40;96890.63;5107902;28;20043;-40
2021/12/11 05:33:00;;;;;;;6.90;5.03;;;2.30;99.90;;;2.43;74.62;96897.81;5104881;28;20069;-40
2021/12/11 05:35:32;;;;;;;7.13;5.43;;;2.20;99.90;;;2.42;74.54;96907.47;5105712;28;20346;-40
2021/12/11 05:38:03;;;;;;;6.77;4.53;;;2.20;99.90;;;2.36;74.52;96910.63;5108996;28;20048;-40
2021/12/11 05:40:36;;;;;;;7.27;4.97;;;2.20;99.90;;;2.26;74.94;96909.72;5110636;28;20052;-39
2021/12/11 05:43:05;;;;;;;8.40;6.30;;;2.10;99.90;;;2.34;74.80;96913.38;5093547;28;20039;-40
2021/12/11 05:45:35;;;;;;;7.33;5.90;;;2.10;99.90;;;2.45;74.51;96920.38;5110331;28;20242;-40
2021/12/11 05:48:03;;;;;;;7.37;5.33;;;2.30;99.90;;;2.53;74.54;96927.59;5109623;28;20043;-40
2021/12/11 05:50:54;;;;;;;6.97;5.93;;;2.40;99.90;;;2.48;74.42;96928.00;5111451;28;20043;-40
2021/12/11 05:53:23;;;;;;;8.13;5.93;;;2.30;99.90;;;2.45;74.61;96937.94;5109968;28;20056;-40
2021/12/11 05:55:55;;;;;;;10.00;7.20;;;2.30;99.90;;;2.49;74.27;96941.97;5110241;28;20048;-40
2021/12/11 05:58:36;;;;;;;13.63;9.43;;;2.30;99.90;;;2.49;74.41;96950.66;5110181;28;20053;-40
2021/12/11 06:01:05;;;;;;;8.87;6.17;;;2.30;99.90;;;2.48;74.55;96961.31;5110921;28;20091;-40
2021/12/11 06:03:37;;;;;;;8.70;6.40;;;2.30;99.90;;;2.43;74.63;96963.50;5108787;28;20218;-40
2021/12/11 06:06:06;;;;;;;7.03;6.07;;;2.30;99.90;;;2.41;75.00;96974.13;5110743;28;20046;-40
2021/12/11 06:08:34;;;;;;;11.63;6.43;;;2.20;99.90;;;2.48;74.72;96983.19;5111009;28;20050;-40
2021/12/11 06:11:04;;;;;;;8.63;5.63;;;2.30;99.90;;;2.54;74.47;96981.84;5110433;28;20050;-40
2021/12/11 06:13:33;;;;;;;8.83;6.20;;;2.40;99.90;;;2.56;74.48;96993.06;5108779;28;20245;-40
2021/12/11 06:16:02;;;;;;;7.80;5.83;;;2.40;99.90;;;2.43;74.66;96987.97;5109129;28;20071;-40
2021/12/11 06:18:30;;;;;;;7.17;5.73;;;2.30;99.90;;;2.42;74.84;96993.34;5109528;28;20372;-40
2021/12/11 06:20:59;;;;;;;8.60;7.37;;;2.30;99.90;;;2.39;74.80;97004.13;5110897;28;20214;-40
2021/12/11 06:23:28;;;;;;;10.07;7.03;;;2.20;99.90;;;2.39;74.75;97009.38;5110079;28;20047;-40
2021/12/11 06:25:56;;;;;;;9.53;6.40;;;2.20;99.90;;;2.34;75.25;97009.72;5109664;28;20129;-40
2021/12/11 06:28:26;;;;;;;7.93;6.13;;;2.20;99.90;;;2.41;74.85;97017.97;5109346;28;20055;-40
2021/12/11 06:30:58;;;;;;;7.97;5.83;;;2.20;99.90;;;2.35;74.87;97012.25;5107922;28;20358;-40
2021/12/11 06:33:28;;;;;;;10.00;6.37;;;2.20;99.90;;;2.43;75.01;97023.94;5109074;28;20224;-40
2021/12/11 06:36:08;;;;;;;9.67;6.27;;;2.30;99.90;;;2.31;74.90;97026.59;5109623;28;20312;-40
2021/12/11 06:38:38;;;;;;;9.93;7.33;;;2.20;99.90;;;2.33;74.90;97048.31;5108564;28;20066;-40
2021/12/11 06:41:09;;;;;;;8.77;6.70;;;2.20;99.90;;;2.37;75.10;97035.78;5091302;28;20808;-40
2021/12/11 06:43:38;;;;;;;8.97;6.77;;;2.20;99.90;;;2.39;74.94;97048.78;5109025;28;20052;-40
2021/12/11 06:46:08;;;;;;;10.33;7.20;;;2.20;99.90;;;2.47;74.65;97052.44;5109495;28;20039;-40
2021/12/11 06:48:37;;;;;;;9.83;7.20;;;2.30;99.90;;;2.49;75.12;97055.78;5108944;28;20046;-40
2021/12/11 06:51:06;;;;;;;10.47;7.37;;;2.30;99.90;;;2.47;74.93;97062.94;5108510;28;20046;-40
2021/12/11 06:53:37;;;;;;;10.27;7.47;;;2.30;99.90;;;2.54;74.65;97072.00;5109376;28;20382;-40
2021/12/11 06:56:09;;;;;;;10.50;8.20;;;2.40;99.90;;;2.63;74.70;97072.22;5091886;28;20048;-40
2021/12/11 06:58:36;;;;;;;12.43;8.83;;;2.40;99.90;;;2.64;74.72;97084.41;5108599;28;20044;-40
2021/12/11 07:01:07;;;;;;;11.93;7.60;;;2.50;99.90;;;2.52;74.92;97086.22;5110251;28;20043;-40
2021/12/11 07:03:37;;;;;;;12.30;7.67;;;2.30;99.90;;;2.53;74.76;97090.53;5109027;28;20043;-40
2021/12/11 07:06:08;;;;;;;12.00;8.70;;;2.30;99.90;;;2.59;74.58;97100.53;5108702;28;20051;-40
2021/12/11 07:08:38;;;;;;;11.50;8.17;;;2.40;99.90;;;2.54;74.73;97105.34;5107802;28;20370;-40
2021/12/11 07:11:09;;;;;;;10.70;7.80;;;2.30;99.90;;;2.45;74.80;97120.03;5109660;28;20051;-40
2021/12/11 07:13:40;;;;;;;18.03;12.60;;;2.30;99.90;;;2.47;74.73;97118.13;5108642;28;20054;-40
2021/12/11 07:16:10;;;;;;;15.03;11.57;;;2.30;99.90;;;2.47;74.75;97128.63;5107890;28;20056;-40
2021/12/11 07:18:38;;;;;;;13.73;9.90;;;2.30;99.90;;;2.51;74.97;97139.75;5107661;28;20357;-40
2021/12/11 07:21:09;;;;;;;15.50;11.77;;;2.30;99.90;;;2.55;74.55;97144.63;5110199;28;20208;-40
2021/12/11 07:23:45;;;;;;;15.20;10.50;;;2.30;99.90;;;2.56;74.61;97146.31;5108777;28;20059;-40
2021/12/11 07:26:28;;;;;;;13.83;9.03;;;2.40;99.90;;;2.54;74.55;97150.03;5107733;28;20254;-40
2021/12/11 07:29:02;;;;;;;13.90;8.93;;;2.40;99.90;;;2.53;74.58;97159.69;5107764;28;20337;-40
2021/12/11 07:31:31;;;;;;;13.55;9.85;;;2.30;99.90;;;2.52;74.43;97167.69;5109357;28;20051;-40
2021/12/11 07:33:59;;;;;;;13.40;9.50;;;2.30;99.90;;;2.45;74.71;97171.78;5091246;28;20086;-40
2021/12/11 07:36:29;;;;;;;15.57;9.07;;;2.30;99.90;;;2.36;74.79;97178.56;5089986;28;20272;-40
2021/12/11 07:38:59;;;;;;;15.37;10.40;;;2.20;99.90;;;2.42;74.79;97182.50;5108345;28;20225;-40
2021/12/11 07:41:27;;;;;;;13.07;9.53;;;2.20;99.90;;;2.49;74.62;97197.66;5108248;28;20061;-40
2021/12/11 07:43:55;;;;;;;16.57;10.10;;;2.30;99.90;;;2.54;74.67;97207.84;5106507;28;20063;-40
2021/12/11 07:46:27;;;;;;;13.00;8.73;;;2.30;99.90;;;2.52;74.84;97213.22;5107696;28;20583;-40
2021/12/11 07:48:57;;;;;;;13.97;9.50;;;2.40;99.90;;;2.58;74.37;97221.53;5105386;28;20055;-40
2021/12/11 07:51:27;;;;;;;16.43;10.70;;;2.40;99.90;;;2.65;74.82;97220.09;5109183;28;20056;-41
2021/12/11 07:53:59;;;;;;;12.53;8.80;;;2.50;99.90;;;2.65;74.24;97231.44;5108579;28;20372;-40
2021/12/11 07:56:28;;;;;;;13.67;9.60;;;2.50;99.90;;;2.65;74.55;97235.88;5089905;28;20250;-40
2021/12/11 07:58:59;;;;;;;11.47;8.83;;;2.40;99.90;;;2.69;74.21;97239.94;5108208;28;20043;-40
2021/12/11 08:01:28;;;;;;;16.10;9.37;;;2.40;99.90;;;2.68;74.03;97251.41;5107543;28;20052;-40
2021/12/11 08:03:59;;;;;;;12.77;8.43;;;2.50;99.90;;;2.66;74.18;97253.34;5107052;28;20261;-40
2021/12/11 08:06:30;;;;;;;13.87;8.70;;;2.40;99.90;;;2.60;74.25;97259.91;5107688;28;20054;-40
2021/12/11 08:08:58;;;;;;;13.60;8.80;;;2.40;99.90;;;2.65;73.97;97263.00;5106623;28;20055;-40
2021/12/11 08:11:28;;;;;;;12.20;8.10;;;2.40;99.90;;;2.65;74.62;97270.03;5108147;28;20047;-40
2021/12/11 08:13:58;;;;;;;12.53;8.50;;;2.40;99.90;;;2.71;74.15;97277.44;5107464;28;20051;-40
2021/12/11 08:16:35;;;;;;;12.33;9.27;;;2.40;99.90;;;2.74;73.93;97283.31;5107780;28;20047;-40
2021/12/11 08:19:05;;;;;;;14.90;9.77;;;2.50;99.90;;;2.76;74.13;97283.19;5108352;28;20051;-40
2021/12/11 08:21:40;;;;;;;20.83;12.33;;;2.50;99.90;;;2.79;74.18;97293.44;5063511;28;20134;-40
2021/12/11 08:24:09;;;;;;;28.80;16.10;;;2.60;99.90;;;2.72;74.33;97294.91;5042541;28;20047;-40
2021/12/11 08:26:40;;;;;;;34.80;17.77;;;2.50;99.90;;;2.69;74.42;97295.97;5058647;28;20045;-40
2021/12/11 08:29:11;;;;;;;29.10;17.60;;;2.50;99.90;;;2.64;74.22;97307.81;5043784;28;20239;-40
2021/12/11 08:31:43;;;;;;;31.20;19.63;;;2.50;99.90;;;2.66;74.33;97309.34;5043479;28;20053;-40
2021/12/11 08:34:11;;;;;;;25.33;16.83;;;2.40;99.90;;;2.68;74.59;97311.88;5042841;28;20052;-40
2021/12/11 08:36:41;;;;;;;24.30;15.47;;;2.40;99.90;;;2.66;74.31;97324.31;5043224;28;20056;-40
2021/12/11 08:39:14;;;;;;;21.27;14.17;;;2.50;99.90;;;2.66;74.47;97321.66;5043236;28;20068;-40
2021/12/11 08:41:44;;;;;;;15.13;10.20;;;2.50;99.90;;;2.61;74.36;97324.63;5042573;28;20049;-40
2021/12/11 08:44:15;;;;;;;14.53;9.53;;;2.40;99.90;;;2.69;74.43;97327.50;5043746;28;20075;-40
2021/12/11 08:46:58;;;;;;;12.70;8.37;;;2.50;99.90;;;2.70;74.67;97341.50;5042756;28;20053;-40
2021/12/11 08:49:33;;;;;;;12.75;8.02;;;2.60;99.90;;;2.62;74.43;97347.34;5043631;28;20331;-40
2021/12/11 08:52:09;;;;;;;10.57;7.70;;;2.50;99.90;;;2.64;74.60;97349.88;5043409;28;20049;-40
2021/12/11 08:54:39;;;;;;;12.47;8.27;;;2.50;99.90;;;2.74;74.65;97361.34;5042583;28;20347;-40
2021/12/11 08:57:13;;;;;;;13.57;8.60;;;2.60;99.90;;;2.76;74.44;97365.50;5042715;28;20059;-40
2021/12/11 08:59:49;;;;;;;14.23;8.80;;;2.60;99.90;;;2.79;74.54;97368.84;5044565;28;20078;-40
2021/12/11 09:02:25;;;;;;;9.50;6.47;;;2.60;99.90;;;2.79;74.21;97371.47;5048289;28;20348;-40
2021/12/11 09:05:18;;;;;;;10.90;7.80;;;2.70;99.90;;;2.78;74.38;97380.34;5051780;28;20053;-40
2021/12/11 09:08:00;;;;;;;12.53;8.27;;;2.60;99.90;;;2.84;74.57;97390.38;5049772;28;20059;-40
2021/12/11 09:10:38;;;;;;;11.97;8.10;;;2.70;99.90;;;2.86;74.20;97393.72;5050960;28;20059;-40
2021/12/11 09:13:36;;;;;;;11.90;7.97;;;2.70;99.90;;;2.94;73.83;97392.16;5045062;28;20053;-40
2021/12/11 09:16:36;;;;;;;11.33;7.90;;;2.80;99.90;;;2.91;74.29;97402.09;5045877;28;20049;-40
2021/12/11 09:19:13;;;;;;;11.20;7.80;;;2.80;99.90;;;2.98;74.75;97402.44;5048102;28;20070;-40
2021/12/11 09:21:58;;;;;;;11.60;8.10;;;2.80;99.90;;;2.98;74.44;97405.91;5061321;28;20056;-40
2021/12/11 09:24:49;;;;;;;11.63;8.23;;;2.70;99.90;;;2.95;74.00;97411.44;5059924;28;20441;-40
2021/12/11 09:27:29;;;;;;;10.47;7.03;;;2.80;99.90;;;2.97;74.33;97414.78;5058048;28;20048;-40
2021/12/11 09:30:24;;;;;;;12.97;8.73;;;2.80;99.90;;;3.05;74.21;97419.44;5062535;28;20055;-40
2021/12/11 09:32:57;;;;;;;;;;;2.90;99.90;;;3.05;73.74;97422.88;5050308;28;20049;-40
2021/12/11 09:35:53;;;;;;;11.27;6.93;;;2.90;99.90;;;3.14;73.91;97426.59;5048276;28;19916;-40
2021/12/11 09:38:47;;;;;;;9.67;6.53;;;2.90;99.90;;;3.16;73.49;97429.97;5049816;28;20055;-40
2021/12/11 09:41:19;;;;;;;10.20;7.68;;;3.10;99.90;;;3.21;73.76;97429.59;5048445;28;20053;-40
2021/12/11 09:44:15;;;;;;;12.07;7.33;;;3.10;99.90;;;3.08;73.52;97440.22;5046669;28;20040;-40
2021/12/11 09:46:52;;;;;;;10.00;7.40;;;3.00;99.90;;;3.03;73.80;97439.75;5047715;28;20040;-40
2021/12/11 09:49:28;;;;;;;12.13;6.90;;;2.90;99.90;;;3.02;73.67;97444.16;5048147;28;20040;-40
2021/12/11 09:52:04;;;;;;;11.30;7.33;;;2.90;99.90;;;2.93;73.97;97452.78;5047188;28;20067;-40
2021/12/11 09:54:35;;;;;;;9.33;6.57;;;2.80;99.90;;;2.95;74.11;97458.75;5048360;28;20048;-40
2021/12/11 09:57:10;;;;;;;13.13;7.67;;;2.90;99.90;;;2.99;74.22;97468.09;5047542;28;20060;-40
2021/12/11 09:59:40;;;;;;;8.93;7.33;;;2.90;99.90;;;3.10;74.33;97469.88;5048648;28;20447;-40
2021/12/11 10:02:16;;;;;;;9.13;6.13;;;3.00;99.90;;;3.06;73.53;97473.69;5046847;28;20053;-40
2021/12/11 10:05:11;;;;;;;10.13;7.43;;;3.00;99.90;;;3.07;73.38;97478.00;5047362;28;20060;-40
2021/12/11 10:07:49;;;;;;;9.73;6.83;;;3.10;99.90;;;3.10;73.66;97469.88;5047710;28;20049;-40
2021/12/11 10:10:23;;;;;;;11.07;7.20;;;3.10;99.90;;;3.11;73.67;97475.00;5028309;28;20058;-40
2021/12/11 10:12:57;;;;;;;9.10;5.90;;;3.10;99.90;;;3.10;73.47;97489.16;5027849;28;20073;-40
2021/12/11 10:15:34;;;;;;;9.75;6.45;;;3.00;99.90;;;3.08;73.82;97485.78;5028554;28;20063;-40
2021/12/11 10:18:18;;;;;;;11.53;6.37;;;3.00;99.90;;;3.08;73.82;97487.56;5028064;28;20057;-40
2021/12/11 10:21:23;;;;;;;10.20;6.43;;;3.00;99.90;;;3.09;73.98;97484.00;5029593;28;20053;-40
2021/12/11 10:23:56;;;;;;;8.03;6.13;;;3.00;99.90;;;3.18;73.95;97492.94;5021282;28;20061;-40
2021/12/11 10:26:27;;;;;;;10.80;7.13;;;3.10;99.90;;;3.23;73.58;97491.66;5027790;28;20051;-39
2021/12/11 10:28:59;;;;;;;9.80;6.50;;;3.10;99.90;;;3.23;73.11;97498.72;5027762;28;20056;-40
2021/12/11 10:31:35;;;;;;;12.33;6.90;;;3.20;99.90;;;3.14;73.19;97510.75;5028041;28;20059;-39
2021/12/11 10:34:12;;;;;;;9.27;6.47;;;3.10;99.90;;;3.12;73.52;97510.91;5026421;28;20057;-40
2021/12/11 10:36:50;;;;;;;12.50;8.63;;;3.00;99.90;;;3.24;73.87;97506.50;5028391;28;20383;-40
2021/12/11 10:39:18;;;;;;;9.93;6.87;;;3.20;99.90;;;3.22;73.51;97518.06;5029272;28;20263;-40
2021/12/11 10:41:47;;;;;;;10.30;7.40;;;3.20;99.90;;;3.19;73.28;97519.16;5026265;28;20041;-40
2021/12/11 10:44:22;;;;;;;11.63;7.73;;;3.20;99.90;;;3.21;73.55;97519.88;5025567;28;20049;-40
2021/12/11 10:47:29;;;;;;;18.90;9.63;;;3.20;99.90;;;3.24;73.33;97511.75;5027102;28;20041;-39
2021/12/11 10:50:27;;;;;;;14.03;8.80;;;3.20;99.90;;;3.40;73.63;97519.28;5027656;28;20197;-40
2021/12/11 10:52:56;;;;;;;12.13;9.27;;;3.30;99.90;;;3.42;73.10;97524.44;5026498;28;20049;-39
2021/12/11 10:55:30;;;;;;;13.90;8.70;;;3.30;99.90;;;3.50;72.94;97524.66;5028198;28;20096;-40
2021/12/11 10:58:04;;;;;;;10.63;7.37;;;3.40;99.90;;;3.45;72.97;97530.31;5028673;28;20252;-40
2021/12/11 11:00:45;;;;;;;20.30;11.30;;;3.40;99.90;;;3.55;72.72;97527.78;5028095;28;20061;-39
2021/12/11 11:03:16;;;;;;;15.33;9.20;;;3.50;99.90;;;3.64;72.94;97532.31;5012693;28;20042;-39
2021/12/11 11:05:44;;;;;;;14.30;8.60;;;3.60;99.90;;;3.65;72.46;97536.63;5037901;28;20616;-40
2021/12/11 11:08:13;;;;;;;16.83;10.40;;;3.60;99.90;;;3.63;72.14;97538.56;5047583;28;20343;-39
2021/12/11 11:10:51;;;;;;;10.60;7.10;;;3.60;99.90;;;3.58;71.48;97531.97;5047681;28;20057;-40
2021/12/11 11:13:22;;;;;;;11.73;8.33;;;3.60;99.90;;;3.62;71.89;97536.03;5047630;28;20164;-39
2021/12/11 11:15:52;;;;;;;11.90;7.30;;;3.50;99.90;;;3.61;71.36;97547.53;5047324;28;20379;-39
2021/12/11 11:18:24;;;;;;;9.90;7.07;;;3.50;99.90;;;3.66;72.18;97548.81;5045785;28;20070;-39
2021/12/11 11:21:03;;;;;;;9.77;7.33;;;3.50;99.90;;;3.66;71.98;97543.56;5047088;28;20053;-39
2021/12/11 11:23:32;;;;;;;10.70;7.27;;;3.60;99.90;;;3.67;72.25;97547.06;5047146;28;20212;-39